0TS8 weather

Flying 'K' Ranch Ultralightport
Mercedes, Texas, United States

Public forecast

Using degrees Fahrenheit for public forecast. Weather courtesy of forecast.io.

Closest aviation weather report (METAR) to Flying 'K' Ranch Ultralightport

Closest report is Mid Valley Airport, 5.1 nm (9.4 km) WNW. Retrieved 2019/10/21 16:35 UTC (0 seconds ago):

KTXW 211635Z AUTO 29004KT 7SM BKN016 30/24 A2980 RMK AO2 LTG DSNT NE T02990244

Closest aviation forecast (TAF) to Flying 'K' Ranch Ultralightport

Closest forecast is Valley International Airport, 13.2 nm (24.5 km) ENE. Retrieved 2019/10/21 12:30 UTC (4 hours ago):

TAF KHRL 211129Z 2112/2212 17009KT P6SM FEW015 SCT060 BKN100 TEMPO 2112/2114 BKN025 FM211600 21009KT P6SM VCTS SCT029CB BKN100 FM212100 33012KT P6SM SCT035 BKN100 PROB30 2121/2124 4SM TSRA BKN035CB BKN040 FM220300 01009KT P6SM FEW020 SCT100